sensor_id;sensor_type;location;lat;lon;timestamp;P1;durP1;ratioP1;P2;durP2;ratioP2
4766;SDS011;2397;53.576;9.746;2024-03-02T00:00:16;17.37;;;11.97;;
4766;SDS011;2397;53.576;9.746;2024-03-02T00:02:44;16.83;;;9.67;;
4766;SDS011;2397;53.576;9.746;2024-03-02T00:05:12;17.07;;;10.00;;
4766;SDS011;2397;53.576;9.746;2024-03-02T00:07:41;18.40;;;11.50;;
4766;SDS011;2397;53.576;9.746;2024-03-02T00:10:09;16.23;;;10.27;;
4766;SDS011;2397;53.576;9.746;2024-03-02T00:12:38;22.57;;;11.07;;
4766;SDS011;2397;53.576;9.746;2024-03-02T00:17:53;14.77;;;10.47;;
4766;SDS011;2397;53.576;9.746;2024-03-02T00:20:24;17.60;;;10.77;;
4766;SDS011;2397;53.576;9.746;2024-03-02T00:23:03;17.00;;;11.23;;
4766;SDS011;2397;53.576;9.746;2024-03-02T00:25:38;18.20;;;11.17;;
4766;SDS011;2397;53.576;9.746;2024-03-02T00:28:11;16.23;;;10.93;;
4766;SDS011;2397;53.576;9.746;2024-03-02T00:31:01;19.67;;;12.00;;
4766;SDS011;2397;53.576;9.746;2024-03-02T00:33:42;16.40;;;11.40;;
4766;SDS011;2397;53.576;9.746;2024-03-02T00:36:11;18.37;;;12.00;;
4766;SDS011;2397;53.576;9.746;2024-03-02T00:38:43;20.50;;;11.03;;
4766;SDS011;2397;53.576;9.746;2024-03-02T00:41:24;16.73;;;10.90;;
4766;SDS011;2397;53.576;9.746;2024-03-02T00:44:06;20.47;;;11.23;;
4766;SDS011;2397;53.576;9.746;2024-03-02T00:46:36;18.20;;;10.83;;
4766;SDS011;2397;53.576;9.746;2024-03-02T00:49:05;19.73;;;11.20;;
4766;SDS011;2397;53.576;9.746;2024-03-02T00:51:37;16.50;;;12.00;;
4766;SDS011;2397;53.576;9.746;2024-03-02T00:54:05;18.60;;;11.10;;
4766;SDS011;2397;53.576;9.746;2024-03-02T00:56:34;20.17;;;12.10;;
4766;SDS011;2397;53.576;9.746;2024-03-02T00:59:01;18.77;;;12.43;;
4766;SDS011;2397;53.576;9.746;2024-03-02T01:01:28;19.87;;;12.07;;
4766;SDS011;2397;53.576;9.746;2024-03-02T01:03:55;20.63;;;13.97;;
4766;SDS011;2397;53.576;9.746;2024-03-02T01:06:21;22.93;;;13.70;;
4766;SDS011;2397;53.576;9.746;2024-03-02T01:08:49;23.90;;;13.80;;
4766;SDS011;2397;53.576;9.746;2024-03-02T01:11:18;24.10;;;11.63;;
4766;SDS011;2397;53.576;9.746;2024-03-02T01:13:49;19.20;;;11.80;;
4766;SDS011;2397;53.576;9.746;2024-03-02T01:16:16;22.33;;;13.23;;
4766;SDS011;2397;53.576;9.746;2024-03-02T01:18:43;21.33;;;12.63;;
4766;SDS011;2397;53.576;9.746;2024-03-02T01:21:10;23.10;;;13.23;;
4766;SDS011;2397;53.576;9.746;2024-03-02T01:23:38;22.60;;;14.40;;
4766;SDS011;2397;53.576;9.746;2024-03-02T01:26:04;18.27;;;12.63;;
4766;SDS011;2397;53.576;9.746;2024-03-02T01:28:32;23.03;;;14.20;;
4766;SDS011;2397;53.576;9.746;2024-03-02T01:30:58;21.40;;;14.17;;
4766;SDS011;2397;53.576;9.746;2024-03-02T01:33:26;21.57;;;13.23;;
4766;SDS011;2397;53.576;9.746;2024-03-02T01:35:52;22.27;;;13.80;;
4766;SDS011;2397;53.576;9.746;2024-03-02T01:38:19;25.30;;;14.00;;
4766;SDS011;2397;53.576;9.746;2024-03-02T01:40:45;25.00;;;13.70;;
4766;SDS011;2397;53.576;9.746;2024-03-02T01:43:12;24.80;;;15.17;;
4766;SDS011;2397;53.576;9.746;2024-03-02T01:45:39;24.70;;;14.93;;
4766;SDS011;2397;53.576;9.746;2024-03-02T01:48:06;30.80;;;16.50;;
4766;SDS011;2397;53.576;9.746;2024-03-02T01:50:33;28.90;;;15.10;;
4766;SDS011;2397;53.576;9.746;2024-03-02T01:53:00;27.70;;;15.33;;
4766;SDS011;2397;53.576;9.746;2024-03-02T01:55:29;29.60;;;16.80;;
4766;SDS011;2397;53.576;9.746;2024-03-02T01:57:57;23.37;;;14.97;;
4766;SDS011;2397;53.576;9.746;2024-03-02T02:00:24;27.53;;;15.00;;
4766;SDS011;2397;53.576;9.746;2024-03-02T02:02:53;26.90;;;15.47;;
4766;SDS011;2397;53.576;9.746;2024-03-02T02:05:20;26.17;;;15.57;;
4766;SDS011;2397;53.576;9.746;2024-03-02T02:07:47;27.13;;;15.80;;
4766;SDS011;2397;53.576;9.746;2024-03-02T02:10:13;27.80;;;15.10;;
4766;SDS011;2397;53.576;9.746;2024-03-02T02:12:40;24.30;;;15.73;;
4766;SDS011;2397;53.576;9.746;2024-03-02T02:15:21;29.87;;;16.50;;
4766;SDS011;2397;53.576;9.746;2024-03-02T02:17:51;25.90;;;15.17;;
4766;SDS011;2397;53.576;9.746;2024-03-02T02:20:18;29.07;;;15.93;;
4766;SDS011;2397;53.576;9.746;2024-03-02T02:23:01;32.97;;;16.03;;
4766;SDS011;2397;53.576;9.746;2024-03-02T02:25:29;27.93;;;15.80;;
4766;SDS011;2397;53.576;9.746;2024-03-02T02:27:56;26.40;;;16.07;;
4766;SDS011;2397;53.576;9.746;2024-03-02T02:30:28;26.30;;;15.83;;
4766;SDS011;2397;53.576;9.746;2024-03-02T02:32:56;28.97;;;16.23;;
4766;SDS011;2397;53.576;9.746;2024-03-02T02:35:23;24.37;;;15.80;;
4766;SDS011;2397;53.576;9.746;2024-03-02T02:37:53;24.37;;;14.70;;
4766;SDS011;2397;53.576;9.746;2024-03-02T02:40:21;24.33;;;13.90;;
4766;SDS011;2397;53.576;9.746;2024-03-02T02:42:47;22.03;;;14.43;;
4766;SDS011;2397;53.576;9.746;2024-03-02T02:45:14;29.57;;;14.90;;
4766;SDS011;2397;53.576;9.746;2024-03-02T02:47:42;23.33;;;14.37;;
4766;SDS011;2397;53.576;9.746;2024-03-02T02:50:09;30.20;;;14.87;;
4766;SDS011;2397;53.576;9.746;2024-03-02T02:52:37;28.47;;;15.23;;
4766;SDS011;2397;53.576;9.746;2024-03-02T02:55:07;25.63;;;15.43;;
4766;SDS011;2397;53.576;9.746;2024-03-02T02:57:35;26.90;;;14.23;;
4766;SDS011;2397;53.576;9.746;2024-03-02T03:00:08;24.67;;;14.17;;
4766;SDS011;2397;53.576;9.746;2024-03-02T03:02:40;21.80;;;14.40;;
4766;SDS011;2397;53.576;9.746;2024-03-02T03:05:11;26.30;;;16.07;;
4766;SDS011;2397;53.576;9.746;2024-03-02T03:07:39;27.30;;;15.10;;
4766;SDS011;2397;53.576;9.746;2024-03-02T03:10:07;25.20;;;15.00;;
4766;SDS011;2397;53.576;9.746;2024-03-02T03:12:34;29.23;;;16.13;;
4766;SDS011;2397;53.576;9.746;2024-03-02T03:15:02;28.40;;;16.57;;
4766;SDS011;2397;53.576;9.746;2024-03-02T03:17:30;25.90;;;15.90;;
4766;SDS011;2397;53.576;9.746;2024-03-02T03:19:57;25.77;;;14.70;;
4766;SDS011;2397;53.576;9.746;2024-03-02T03:22:24;28.70;;;15.50;;
4766;SDS011;2397;53.576;9.746;2024-03-02T03:24:50;28.20;;;15.03;;
4766;SDS011;2397;53.576;9.746;2024-03-02T03:27:17;25.90;;;16.23;;
4766;SDS011;2397;53.576;9.746;2024-03-02T03:29:44;29.20;;;16.30;;
4766;SDS011;2397;53.576;9.746;2024-03-02T03:32:10;29.90;;;16.70;;
4766;SDS011;2397;53.576;9.746;2024-03-02T03:34:37;27.07;;;16.30;;
4766;SDS011;2397;53.576;9.746;2024-03-02T03:37:04;28.20;;;15.80;;
4766;SDS011;2397;53.576;9.746;2024-03-02T03:39:30;32.83;;;15.80;;
4766;SDS011;2397;53.576;9.746;2024-03-02T03:41:57;29.57;;;15.67;;
4766;SDS011;2397;53.576;9.746;2024-03-02T03:44:23;30.40;;;18.17;;
4766;SDS011;2397;53.576;9.746;2024-03-02T03:46:51;27.13;;;16.83;;
4766;SDS011;2397;53.576;9.746;2024-03-02T03:49:17;30.97;;;17.43;;
4766;SDS011;2397;53.576;9.746;2024-03-02T03:51:44;30.57;;;16.60;;
4766;SDS011;2397;53.576;9.746;2024-03-02T03:54:10;30.43;;;15.93;;
4766;SDS011;2397;53.576;9.746;2024-03-02T03:56:37;28.40;;;15.33;;
4766;SDS011;2397;53.576;9.746;2024-03-02T03:59:04;27.80;;;15.37;;
4766;SDS011;2397;53.576;9.746;2024-03-02T04:01:31;27.70;;;16.83;;
4766;SDS011;2397;53.576;9.746;2024-03-02T04:04:00;27.23;;;16.20;;
4766;SDS011;2397;53.576;9.746;2024-03-02T04:06:30;31.47;;;17.47;;
4766;SDS011;2397;53.576;9.746;2024-03-02T04:08:56;25.53;;;16.67;;
4766;SDS011;2397;53.576;9.746;2024-03-02T04:11:23;33.30;;;17.00;;
4766;SDS011;2397;53.576;9.746;2024-03-02T04:13:50;28.37;;;15.50;;
4766;SDS011;2397;53.576;9.746;2024-03-02T04:16:17;30.97;;;16.80;;
4766;SDS011;2397;53.576;9.746;2024-03-02T04:18:43;33.20;;;18.40;;
4766;SDS011;2397;53.576;9.746;2024-03-02T04:21:10;29.43;;;16.90;;
4766;SDS011;2397;53.576;9.746;2024-03-02T04:23:37;31.43;;;17.00;;
4766;SDS011;2397;53.576;9.746;2024-03-02T04:26:04;37.00;;;18.10;;
4766;SDS011;2397;53.576;9.746;2024-03-02T04:28:30;30.10;;;17.00;;
4766;SDS011;2397;53.576;9.746;2024-03-02T04:30:57;28.03;;;17.37;;
4766;SDS011;2397;53.576;9.746;2024-03-02T04:33:23;32.50;;;16.90;;
4766;SDS011;2397;53.576;9.746;2024-03-02T04:35:50;27.87;;;16.57;;
4766;SDS011;2397;53.576;9.746;2024-03-02T04:38:17;37.77;;;17.80;;
4766;SDS011;2397;53.576;9.746;2024-03-02T04:40:43;29.93;;;16.97;;
4766;SDS011;2397;53.576;9.746;2024-03-02T04:43:10;35.60;;;16.43;;
4766;SDS011;2397;53.576;9.746;2024-03-02T04:45:38;32.13;;;16.83;;
4766;SDS011;2397;53.576;9.746;2024-03-02T04:48:04;38.03;;;16.07;;
4766;SDS011;2397;53.576;9.746;2024-03-02T04:50:31;32.43;;;17.43;;
4766;SDS011;2397;53.576;9.746;2024-03-02T04:52:58;31.57;;;18.00;;
4766;SDS011;2397;53.576;9.746;2024-03-02T04:55:24;26.50;;;16.20;;
4766;SDS011;2397;53.576;9.746;2024-03-02T04:58:11;35.10;;;17.50;;
4766;SDS011;2397;53.576;9.746;2024-03-02T05:00:37;32.37;;;16.57;;
4766;SDS011;2397;53.576;9.746;2024-03-02T05:03:04;31.33;;;17.67;;
4766;SDS011;2397;53.576;9.746;2024-03-02T05:05:31;29.43;;;17.70;;
4766;SDS011;2397;53.576;9.746;2024-03-02T05:07:57;32.77;;;17.40;;
4766;SDS011;2397;53.576;9.746;2024-03-02T05:10:24;31.80;;;18.50;;
4766;SDS011;2397;53.576;9.746;2024-03-02T05:12:51;26.90;;;16.20;;
4766;SDS011;2397;53.576;9.746;2024-03-02T05:15:27;33.50;;;16.90;;
4766;SDS011;2397;53.576;9.746;2024-03-02T05:17:54;31.00;;;16.17;;
4766;SDS011;2397;53.576;9.746;2024-03-02T05:20:20;34.93;;;18.40;;
4766;SDS011;2397;53.576;9.746;2024-03-02T05:22:47;27.00;;;17.23;;
4766;SDS011;2397;53.576;9.746;2024-03-02T05:25:14;26.77;;;16.03;;
4766;SDS011;2397;53.576;9.746;2024-03-02T05:27:41;31.50;;;18.00;;
4766;SDS011;2397;53.576;9.746;2024-03-02T05:30:08;29.57;;;17.30;;
4766;SDS011;2397;53.576;9.746;2024-03-02T05:32:35;34.10;;;17.87;;
4766;SDS011;2397;53.576;9.746;2024-03-02T05:35:01;32.87;;;17.20;;
4766;SDS011;2397;53.576;9.746;2024-03-02T05:37:29;28.40;;;16.43;;
4766;SDS011;2397;53.576;9.746;2024-03-02T05:39:55;27.30;;;16.17;;
4766;SDS011;2397;53.576;9.746;2024-03-02T05:42:22;30.00;;;17.30;;
4766;SDS011;2397;53.576;9.746;2024-03-02T05:44:49;32.77;;;17.00;;
4766;SDS011;2397;53.576;9.746;2024-03-02T05:47:16;33.23;;;17.93;;
4766;SDS011;2397;53.576;9.746;2024-03-02T05:49:42;33.37;;;17.70;;
4766;SDS011;2397;53.576;9.746;2024-03-02T05:52:09;26.73;;;16.77;;
4766;SDS011;2397;53.576;9.746;2024-03-02T05:54:37;29.70;;;17.07;;
4766;SDS011;2397;53.576;9.746;2024-03-02T05:57:05;31.33;;;16.90;;
4766;SDS011;2397;53.576;9.746;2024-03-02T05:59:52;34.07;;;17.00;;
4766;SDS011;2397;53.576;9.746;2024-03-02T06:02:20;29.90;;;16.03;;
4766;SDS011;2397;53.576;9.746;2024-03-02T06:04:46;29.73;;;17.20;;
4766;SDS011;2397;53.576;9.746;2024-03-02T06:07:13;37.83;;;18.23;;
4766;SDS011;2397;53.576;9.746;2024-03-02T06:09:40;30.90;;;18.40;;
4766;SDS011;2397;53.576;9.746;2024-03-02T06:12:07;33.87;;;18.03;;
4766;SDS011;2397;53.576;9.746;2024-03-02T06:14:34;32.70;;;17.40;;
4766;SDS011;2397;53.576;9.746;2024-03-02T06:17:00;31.97;;;17.40;;
4766;SDS011;2397;53.576;9.746;2024-03-02T06:19:27;33.10;;;16.93;;
4766;SDS011;2397;53.576;9.746;2024-03-02T06:21:54;30.40;;;16.90;;
4766;SDS011;2397;53.576;9.746;2024-03-02T06:24:21;25.80;;;15.90;;
4766;SDS011;2397;53.576;9.746;2024-03-02T06:26:47;31.20;;;17.03;;
4766;SDS011;2397;53.576;9.746;2024-03-02T06:29:14;34.20;;;15.97;;
4766;SDS011;2397;53.576;9.746;2024-03-02T06:31:40;26.70;;;15.03;;
4766;SDS011;2397;53.576;9.746;2024-03-02T06:34:07;31.30;;;16.07;;
4766;SDS011;2397;53.576;9.746;2024-03-02T06:36:34;23.20;;;15.70;;
4766;SDS011;2397;53.576;9.746;2024-03-02T06:39:01;24.77;;;14.03;;
4766;SDS011;2397;53.576;9.746;2024-03-02T06:41:27;31.07;;;15.70;;
4766;SDS011;2397;53.576;9.746;2024-03-02T06:43:54;26.27;;;15.07;;
4766;SDS011;2397;53.576;9.746;2024-03-02T06:46:26;23.47;;;14.47;;
4766;SDS011;2397;53.576;9.746;2024-03-02T06:48:52;27.80;;;14.63;;
4766;SDS011;2397;53.576;9.746;2024-03-02T06:51:20;28.57;;;13.80;;
4766;SDS011;2397;53.576;9.746;2024-03-02T06:53:47;24.40;;;15.17;;
4766;SDS011;2397;53.576;9.746;2024-03-02T06:56:13;29.90;;;17.30;;
4766;SDS011;2397;53.576;9.746;2024-03-02T06:58:40;32.00;;;16.50;;
4766;SDS011;2397;53.576;9.746;2024-03-02T07:01:06;29.40;;;17.30;;
4766;SDS011;2397;53.576;9.746;2024-03-02T07:03:33;29.70;;;15.90;;
4766;SDS011;2397;53.576;9.746;2024-03-02T07:06:00;31.03;;;16.83;;
4766;SDS011;2397;53.576;9.746;2024-03-02T07:08:27;29.70;;;14.67;;
4766;SDS011;2397;53.576;9.746;2024-03-02T07:10:53;30.20;;;16.20;;
4766;SDS011;2397;53.576;9.746;2024-03-02T07:13:20;33.13;;;17.53;;
4766;SDS011;2397;53.576;9.746;2024-03-02T07:15:47;35.07;;;17.80;;
4766;SDS011;2397;53.576;9.746;2024-03-02T07:18:33;35.57;;;18.90;;
4766;SDS011;2397;53.576;9.746;2024-03-02T07:21:01;31.10;;;17.07;;
4766;SDS011;2397;53.576;9.746;2024-03-02T07:23:27;29.77;;;16.10;;
4766;SDS011;2397;53.576;9.746;2024-03-02T07:25:54;27.67;;;17.60;;
4766;SDS011;2397;53.576;9.746;2024-03-02T07:28:25;29.53;;;16.17;;
4766;SDS011;2397;53.576;9.746;2024-03-02T07:33:26;30.50;;;16.07;;
4766;SDS011;2397;53.576;9.746;2024-03-02T07:35:53;25.10;;;15.17;;
4766;SDS011;2397;53.576;9.746;2024-03-02T07:38:21;29.87;;;15.07;;
4766;SDS011;2397;53.576;9.746;2024-03-02T07:40:48;23.07;;;14.33;;
4766;SDS011;2397;53.576;9.746;2024-03-02T07:43:19;25.93;;;15.17;;
4766;SDS011;2397;53.576;9.746;2024-03-02T07:45:46;26.37;;;15.50;;
4766;SDS011;2397;53.576;9.746;2024-03-02T07:48:14;23.40;;;15.77;;
4766;SDS011;2397;53.576;9.746;2024-03-02T07:50:41;25.27;;;14.07;;
4766;SDS011;2397;53.576;9.746;2024-03-02T07:53:09;22.27;;;14.70;;
4766;SDS011;2397;53.576;9.746;2024-03-02T07:55:35;27.20;;;14.10;;
4766;SDS011;2397;53.576;9.746;2024-03-02T07:58:02;27.00;;;14.80;;
4766;SDS011;2397;53.576;9.746;2024-03-02T08:00:29;25.70;;;14.70;;
4766;SDS011;2397;53.576;9.746;2024-03-02T08:02:55;27.73;;;14.77;;
4766;SDS011;2397;53.576;9.746;2024-03-02T08:05:22;25.00;;;14.07;;
4766;SDS011;2397;53.576;9.746;2024-03-02T08:07:49;22.37;;;14.83;;
4766;SDS011;2397;53.576;9.746;2024-03-02T08:10:19;24.60;;;13.47;;
4766;SDS011;2397;53.576;9.746;2024-03-02T08:12:46;25.53;;;15.33;;
4766;SDS011;2397;53.576;9.746;2024-03-02T08:15:13;23.17;;;14.10;;
4766;SDS011;2397;53.576;9.746;2024-03-02T08:17:40;23.80;;;14.43;;
4766;SDS011;2397;53.576;9.746;2024-03-02T08:20:11;24.10;;;13.20;;
4766;SDS011;2397;53.576;9.746;2024-03-02T08:22:38;25.03;;;13.70;;
4766;SDS011;2397;53.576;9.746;2024-03-02T08:25:05;21.70;;;13.50;;
4766;SDS011;2397;53.576;9.746;2024-03-02T08:27:32;22.63;;;14.30;;
4766;SDS011;2397;53.576;9.746;2024-03-02T08:30:00;23.30;;;13.80;;
4766;SDS011;2397;53.576;9.746;2024-03-02T08:32:26;22.73;;;13.60;;
4766;SDS011;2397;53.576;9.746;2024-03-02T08:34:53;20.63;;;13.80;;
4766;SDS011;2397;53.576;9.746;2024-03-02T08:37:19;22.33;;;13.00;;
4766;SDS011;2397;53.576;9.746;2024-03-02T08:39:46;20.93;;;13.20;;
4766;SDS011;2397;53.576;9.746;2024-03-02T08:42:13;28.67;;;14.10;;
4766;SDS011;2397;53.576;9.746;2024-03-02T08:44:39;24.70;;;13.00;;
4766;SDS011;2397;53.576;9.746;2024-03-02T08:47:06;22.50;;;13.90;;
4766;SDS011;2397;53.576;9.746;2024-03-02T08:49:32;23.00;;;13.03;;
4766;SDS011;2397;53.576;9.746;2024-03-02T08:51:59;22.23;;;12.90;;
4766;SDS011;2397;53.576;9.746;2024-03-02T08:54:26;24.60;;;14.40;;
4766;SDS011;2397;53.576;9.746;2024-03-02T08:56:53;18.33;;;11.43;;
4766;SDS011;2397;53.576;9.746;2024-03-02T08:59:19;20.30;;;12.23;;
4766;SDS011;2397;53.576;9.746;2024-03-02T09:01:46;23.03;;;12.97;;
4766;SDS011;2397;53.576;9.746;2024-03-02T09:04:12;20.80;;;12.83;;
4766;SDS011;2397;53.576;9.746;2024-03-02T09:06:39;23.17;;;15.37;;
4766;SDS011;2397;53.576;9.746;2024-03-02T09:09:06;22.30;;;13.03;;
4766;SDS011;2397;53.576;9.746;2024-03-02T09:11:32;30.73;;;13.93;;
4766;SDS011;2397;53.576;9.746;2024-03-02T09:13:59;21.10;;;13.30;;
4766;SDS011;2397;53.576;9.746;2024-03-02T09:16:26;22.10;;;13.13;;
4766;SDS011;2397;53.576;9.746;2024-03-02T09:18:57;21.63;;;12.20;;
4766;SDS011;2397;53.576;9.746;2024-03-02T09:21:24;25.87;;;13.73;;
4766;SDS011;2397;53.576;9.746;2024-03-02T09:23:51;18.13;;;11.80;;
4766;SDS011;2397;53.576;9.746;2024-03-02T09:26:18;22.03;;;13.00;;
4766;SDS011;2397;53.576;9.746;2024-03-02T09:28:47;20.70;;;13.77;;
4766;SDS011;2397;53.576;9.746;2024-03-02T09:31:13;18.60;;;12.10;;
4766;SDS011;2397;53.576;9.746;2024-03-02T09:33:40;22.63;;;13.67;;
4766;SDS011;2397;53.576;9.746;2024-03-02T09:36:16;20.60;;;12.63;;
4766;SDS011;2397;53.576;9.746;2024-03-02T09:38:49;20.33;;;12.23;;
4766;SDS011;2397;53.576;9.746;2024-03-02T09:41:16;20.13;;;12.97;;
4766;SDS011;2397;53.576;9.746;2024-03-02T09:43:55;17.50;;;11.60;;
4766;SDS011;2397;53.576;9.746;2024-03-02T09:46:24;23.30;;;12.77;;
4766;SDS011;2397;53.576;9.746;2024-03-02T09:48:58;19.57;;;10.63;;
4766;SDS011;2397;53.576;9.746;2024-03-02T09:51:31;16.93;;;12.17;;
4766;SDS011;2397;53.576;9.746;2024-03-02T09:54:03;16.90;;;11.30;;
4766;SDS011;2397;53.576;9.746;2024-03-02T09:56:47;15.00;;;11.40;;
4766;SDS011;2397;53.576;9.746;2024-03-02T09:59:13;15.23;;;10.63;;
4766;SDS011;2397;53.576;9.746;2024-03-02T10:01:55;17.33;;;10.27;;
4766;SDS011;2397;53.576;9.746;2024-03-02T10:04:26;15.93;;;10.03;;
4766;SDS011;2397;53.576;9.746;2024-03-02T10:07:13;16.63;;;11.50;;
4766;SDS011;2397;53.576;9.746;2024-03-02T10:09:42;15.37;;;10.20;;
4766;SDS011;2397;53.576;9.746;2024-03-02T10:12:10;16.03;;;10.87;;
4766;SDS011;2397;53.576;9.746;2024-03-02T10:14:40;14.23;;;9.57;;
4766;SDS011;2397;53.576;9.746;2024-03-02T10:17:11;14.43;;;9.90;;
4766;SDS011;2397;53.576;9.746;2024-03-02T10:19:39;15.63;;;10.30;;
4766;SDS011;2397;53.576;9.746;2024-03-02T10:22:07;13.33;;;9.03;;
4766;SDS011;2397;53.576;9.746;2024-03-02T10:24:39;12.10;;;9.30;;
4766;SDS011;2397;53.576;9.746;2024-03-02T10:27:15;11.70;;;8.27;;
4766;SDS011;2397;53.576;9.746;2024-03-02T10:30:01;14.73;;;9.07;;
4766;SDS011;2397;53.576;9.746;2024-03-02T10:32:29;14.13;;;9.20;;
4766;SDS011;2397;53.576;9.746;2024-03-02T10:34:56;13.90;;;8.73;;
4766;SDS011;2397;53.576;9.746;2024-03-02T10:37:22;11.67;;;9.70;;
4766;SDS011;2397;53.576;9.746;2024-03-02T10:39:51;12.70;;;9.10;;
4766;SDS011;2397;53.576;9.746;2024-03-02T10:42:18;14.80;;;8.93;;
4766;SDS011;2397;53.576;9.746;2024-03-02T10:44:45;9.33;;;7.60;;
4766;SDS011;2397;53.576;9.746;2024-03-02T10:47:12;13.73;;;8.77;;
4766;SDS011;2397;53.576;9.746;2024-03-02T10:49:42;10.83;;;8.10;;
4766;SDS011;2397;53.576;9.746;2024-03-02T10:52:11;13.43;;;8.77;;
4766;SDS011;2397;53.576;9.746;2024-03-02T10:54:38;11.90;;;8.17;;
4766;SDS011;2397;53.576;9.746;2024-03-02T10:57:07;13.43;;;7.63;;
4766;SDS011;2397;53.576;9.746;2024-03-02T10:59:36;11.33;;;8.00;;
4766;SDS011;2397;53.576;9.746;2024-03-02T11:02:11;10.80;;;8.03;;
4766;SDS011;2397;53.576;9.746;2024-03-02T11:04:39;10.60;;;7.50;;
4766;SDS011;2397;53.576;9.746;2024-03-02T11:07:08;9.17;;;6.90;;
4766;SDS011;2397;53.576;9.746;2024-03-02T11:09:38;7.10;;;6.40;;
4766;SDS011;2397;53.576;9.746;2024-03-02T11:14:54;9.90;;;8.00;;
4766;SDS011;2397;53.576;9.746;2024-03-02T11:17:22;10.10;;;6.50;;
4766;SDS011;2397;53.576;9.746;2024-03-02T11:19:50;10.03;;;7.47;;
4766;SDS011;2397;53.576;9.746;2024-03-02T11:22:17;9.87;;;7.47;;
4766;SDS011;2397;53.576;9.746;2024-03-02T11:24:47;12.73;;;7.30;;
4766;SDS011;2397;53.576;9.746;2024-03-02T11:33:01;10.67;;;6.93;;
4766;SDS011;2397;53.576;9.746;2024-03-02T11:35:36;9.43;;;7.13;;
4766;SDS011;2397;53.576;9.746;2024-03-02T11:38:06;7.77;;;6.33;;
4766;SDS011;2397;53.576;9.746;2024-03-02T11:40:33;6.93;;;6.00;;
4766;SDS011;2397;53.576;9.746;2024-03-02T11:42:59;9.73;;;6.40;;
4766;SDS011;2397;53.576;9.746;2024-03-02T11:45:27;7.97;;;6.20;;
4766;SDS011;2397;53.576;9.746;2024-03-02T11:47:54;7.83;;;6.50;;
4766;SDS011;2397;53.576;9.746;2024-03-02T11:50:41;10.27;;;6.47;;
4766;SDS011;2397;53.576;9.746;2024-03-02T11:53:18;9.57;;;6.33;;
4766;SDS011;2397;53.576;9.746;2024-03-02T11:55:46;8.37;;;6.00;;
4766;SDS011;2397;53.576;9.746;2024-03-02T11:58:14;8.80;;;6.10;;
4766;SDS011;2397;53.576;9.746;2024-03-02T12:00:44;7.90;;;6.07;;
4766;SDS011;2397;53.576;9.746;2024-03-02T12:03:12;8.50;;;5.60;;
4766;SDS011;2397;53.576;9.746;2024-03-02T12:05:40;7.83;;;6.00;;
4766;SDS011;2397;53.576;9.746;2024-03-02T12:08:07;9.50;;;5.60;;
4766;SDS011;2397;53.576;9.746;2024-03-02T12:10:34;7.10;;;5.40;;
4766;SDS011;2397;53.576;9.746;2024-03-02T12:13:02;7.80;;;5.93;;
4766;SDS011;2397;53.576;9.746;2024-03-02T12:15:31;5.60;;;5.00;;
4766;SDS011;2397;53.576;9.746;2024-03-02T12:17:59;6.07;;;5.23;;
4766;SDS011;2397;53.576;9.746;2024-03-02T12:20:27;6.97;;;4.50;;
4766;SDS011;2397;53.576;9.746;2024-03-02T12:22:59;5.90;;;5.07;;
4766;SDS011;2397;53.576;9.746;2024-03-02T12:25:27;7.83;;;5.00;;
4766;SDS011;2397;53.576;9.746;2024-03-02T12:27:55;5.90;;;4.80;;
4766;SDS011;2397;53.576;9.746;2024-03-02T12:30:23;5.07;;;4.07;;
4766;SDS011;2397;53.576;9.746;2024-03-02T12:32:50;4.70;;;4.20;;
4766;SDS011;2397;53.576;9.746;2024-03-02T12:35:17;5.00;;;4.50;;
4766;SDS011;2397;53.576;9.746;2024-03-02T12:37:44;6.20;;;5.57;;
4766;SDS011;2397;53.576;9.746;2024-03-02T12:40:13;5.87;;;4.30;;
4766;SDS011;2397;53.576;9.746;2024-03-02T12:42:40;5.77;;;4.73;;
4766;SDS011;2397;53.576;9.746;2024-03-02T12:45:08;6.17;;;4.90;;
4766;SDS011;2397;53.576;9.746;2024-03-02T12:47:35;5.90;;;5.17;;
4766;SDS011;2397;53.576;9.746;2024-03-02T12:50:05;7.30;;;5.70;;
4766;SDS011;2397;53.576;9.746;2024-03-02T12:52:33;7.40;;;5.60;;
4766;SDS011;2397;53.576;9.746;2024-03-02T12:55:00;5.90;;;4.87;;
4766;SDS011;2397;53.576;9.746;2024-03-02T12:57:30;6.23;;;5.10;;
4766;SDS011;2397;53.576;9.746;2024-03-02T13:00:01;6.47;;;5.40;;
4766;SDS011;2397;53.576;9.746;2024-03-02T13:02:39;5.93;;;4.53;;
4766;SDS011;2397;53.576;9.746;2024-03-02T13:05:07;7.00;;;4.50;;
4766;SDS011;2397;53.576;9.746;2024-03-02T13:07:37;6.57;;;5.10;;
4766;SDS011;2397;53.576;9.746;2024-03-02T13:10:06;6.30;;;4.57;;
4766;SDS011;2397;53.576;9.746;2024-03-02T13:12:34;4.47;;;4.07;;
4766;SDS011;2397;53.576;9.746;2024-03-02T13:15:02;6.30;;;4.97;;
4766;SDS011;2397;53.576;9.746;2024-03-02T13:17:30;7.13;;;5.20;;
4766;SDS011;2397;53.576;9.746;2024-03-02T13:20:03;7.10;;;4.80;;
4766;SDS011;2397;53.576;9.746;2024-03-02T13:22:37;6.77;;;4.50;;
4766;SDS011;2397;53.576;9.746;2024-03-02T13:25:04;6.00;;;4.57;;
4766;SDS011;2397;53.576;9.746;2024-03-02T13:27:32;5.03;;;4.53;;
4766;SDS011;2397;53.576;9.746;2024-03-02T13:29:59;5.07;;;4.20;;
4766;SDS011;2397;53.576;9.746;2024-03-02T13:32:26;5.43;;;4.50;;
4766;SDS011;2397;53.576;9.746;2024-03-02T13:34:52;7.37;;;4.40;;
4766;SDS011;2397;53.576;9.746;2024-03-02T13:37:20;5.17;;;4.30;;
4766;SDS011;2397;53.576;9.746;2024-03-02T13:39:47;8.10;;;4.90;;
4766;SDS011;2397;53.576;9.746;2024-03-02T13:42:14;7.43;;;4.90;;
4766;SDS011;2397;53.576;9.746;2024-03-02T13:44:43;10.83;;;5.50;;
4766;SDS011;2397;53.576;9.746;2024-03-02T13:47:13;5.50;;;4.30;;
4766;SDS011;2397;53.576;9.746;2024-03-02T13:49:39;5.57;;;5.00;;
4766;SDS011;2397;53.576;9.746;2024-03-02T13:52:10;6.70;;;5.43;;
4766;SDS011;2397;53.576;9.746;2024-03-02T13:54:37;7.50;;;5.20;;
4766;SDS011;2397;53.576;9.746;2024-03-02T13:57:06;5.40;;;4.73;;
4766;SDS011;2397;53.576;9.746;2024-03-02T13:59:34;6.47;;;4.80;;
4766;SDS011;2397;53.576;9.746;2024-03-02T14:02:01;6.00;;;4.80;;
4766;SDS011;2397;53.576;9.746;2024-03-02T14:04:31;6.97;;;5.30;;
4766;SDS011;2397;53.576;9.746;2024-03-02T14:06:59;5.17;;;4.67;;
4766;SDS011;2397;53.576;9.746;2024-03-02T14:09:26;5.67;;;4.87;;
4766;SDS011;2397;53.576;9.746;2024-03-02T14:11:54;8.73;;;4.77;;
4766;SDS011;2397;53.576;9.746;2024-03-02T14:14:21;5.43;;;4.80;;
4766;SDS011;2397;53.576;9.746;2024-03-02T14:16:48;6.17;;;4.73;;
4766;SDS011;2397;53.576;9.746;2024-03-02T14:19:15;5.20;;;4.70;;
4766;SDS011;2397;53.576;9.746;2024-03-02T14:21:42;7.80;;;4.93;;
4766;SDS011;2397;53.576;9.746;2024-03-02T14:24:08;8.17;;;4.80;;
4766;SDS011;2397;53.576;9.746;2024-03-02T14:26:35;6.83;;;4.70;;
4766;SDS011;2397;53.576;9.746;2024-03-02T14:29:03;5.20;;;4.70;;
4766;SDS011;2397;53.576;9.746;2024-03-02T14:31:30;11.90;;;4.77;;
4766;SDS011;2397;53.576;9.746;2024-03-02T14:33:57;7.00;;;4.60;;
4766;SDS011;2397;53.576;9.746;2024-03-02T14:36:25;4.47;;;4.07;;
4766;SDS011;2397;53.576;9.746;2024-03-02T14:38:53;5.90;;;4.60;;
4766;SDS011;2397;53.576;9.746;2024-03-02T14:41:20;10.60;;;4.83;;
4766;SDS011;2397;53.576;9.746;2024-03-02T14:43:47;6.20;;;4.43;;
4766;SDS011;2397;53.576;9.746;2024-03-02T14:46:14;7.77;;;4.97;;
4766;SDS011;2397;53.576;9.746;2024-03-02T14:48:40;5.03;;;4.10;;
4766;SDS011;2397;53.576;9.746;2024-03-02T14:51:07;6.23;;;4.10;;
4766;SDS011;2397;53.576;9.746;2024-03-02T14:53:33;7.30;;;5.50;;
4766;SDS011;2397;53.576;9.746;2024-03-02T14:56:00;6.83;;;5.10;;
4766;SDS011;2397;53.576;9.746;2024-03-02T14:58:27;8.67;;;5.27;;
4766;SDS011;2397;53.576;9.746;2024-03-02T15:00:53;6.57;;;4.90;;
4766;SDS011;2397;53.576;9.746;2024-03-02T15:03:20;12.50;;;6.10;;
4766;SDS011;2397;53.576;9.746;2024-03-02T15:05:47;7.00;;;4.97;;
4766;SDS011;2397;53.576;9.746;2024-03-02T15:08:18;7.00;;;4.97;;
4766;SDS011;2397;53.576;9.746;2024-03-02T15:10:44;8.27;;;5.10;;
4766;SDS011;2397;53.576;9.746;2024-03-02T15:13:12;5.97;;;5.37;;
4766;SDS011;2397;53.576;9.746;2024-03-02T15:15:38;5.57;;;4.97;;